sensor_id;sensor_type;location;lat;lon;timestamp;P1;durP1;ratioP1;P2;durP2;ratioP2
11835;SDS011;5977;51.972;7.640;2023-02-28T00:01:07;131.23;;;44.07;;
11835;SDS011;5977;51.972;7.640;2023-02-28T00:03:35;131.20;;;44.10;;
11835;SDS011;5977;51.972;7.640;2023-02-28T00:06:03;131.03;;;44.00;;
11835;SDS011;5977;51.972;7.640;2023-02-28T00:08:32;131.30;;;44.03;;
11835;SDS011;5977;51.972;7.640;2023-02-28T00:11:01;131.67;;;44.30;;
11835;SDS011;5977;51.972;7.640;2023-02-28T00:13:29;130.40;;;43.70;;
11835;SDS011;5977;51.972;7.640;2023-02-28T00:15:59;131.53;;;44.20;;
11835;SDS011;5977;51.972;7.640;2023-02-28T00:18:27;131.27;;;44.20;;
11835;SDS011;5977;51.972;7.640;2023-02-28T00:20:57;130.93;;;43.97;;
11835;SDS011;5977;51.972;7.640;2023-02-28T00:23:25;130.07;;;43.60;;
11835;SDS011;5977;51.972;7.640;2023-02-28T00:25:55;130.73;;;43.87;;
11835;SDS011;5977;51.972;7.640;2023-02-28T00:28:23;130.57;;;43.90;;
11835;SDS011;5977;51.972;7.640;2023-02-28T00:30:51;130.93;;;44.07;;
11835;SDS011;5977;51.972;7.640;2023-02-28T00:33:19;130.30;;;43.77;;
11835;SDS011;5977;51.972;7.640;2023-02-28T00:35:47;131.00;;;44.10;;
11835;SDS011;5977;51.972;7.640;2023-02-28T00:38:16;130.93;;;44.10;;
11835;SDS011;5977;51.972;7.640;2023-02-28T00:40:44;130.67;;;44.07;;
11835;SDS011;5977;51.972;7.640;2023-02-28T00:43:13;130.23;;;43.80;;
11835;SDS011;5977;51.972;7.640;2023-02-28T00:45:43;130.27;;;43.83;;
11835;SDS011;5977;51.972;7.640;2023-02-28T00:48:11;130.23;;;43.70;;
11835;SDS011;5977;51.972;7.640;2023-02-28T00:50:39;130.73;;;43.97;;
11835;SDS011;5977;51.972;7.640;2023-02-28T00:53:07;131.00;;;44.10;;
11835;SDS011;5977;51.972;7.640;2023-02-28T00:55:35;131.27;;;44.20;;
11835;SDS011;5977;51.972;7.640;2023-02-28T00:58:03;130.93;;;44.07;;
11835;SDS011;5977;51.972;7.640;2023-02-28T01:00:32;130.40;;;43.80;;
11835;SDS011;5977;51.972;7.640;2023-02-28T01:03:00;130.97;;;44.07;;
11835;SDS011;5977;51.972;7.640;2023-02-28T01:05:28;129.77;;;43.67;;
11835;SDS011;5977;51.972;7.640;2023-02-28T01:07:55;131.00;;;44.10;;
11835;SDS011;5977;51.972;7.640;2023-02-28T01:10:24;130.43;;;43.90;;
11835;SDS011;5977;51.972;7.640;2023-02-28T01:12:52;130.33;;;43.90;;
11835;SDS011;5977;51.972;7.640;2023-02-28T01:15:20;130.70;;;44.00;;
11835;SDS011;5977;51.972;7.640;2023-02-28T01:17:49;130.93;;;44.00;;
11835;SDS011;5977;51.972;7.640;2023-02-28T01:20:17;130.20;;;43.73;;
11835;SDS011;5977;51.972;7.640;2023-02-28T01:22:45;130.50;;;43.97;;
11835;SDS011;5977;51.972;7.640;2023-02-28T01:25:13;130.10;;;43.73;;
11835;SDS011;5977;51.972;7.640;2023-02-28T01:27:41;130.80;;;44.13;;
11835;SDS011;5977;51.972;7.640;2023-02-28T01:30:10;129.57;;;43.60;;
11835;SDS011;5977;51.972;7.640;2023-02-28T01:32:38;130.30;;;43.80;;
11835;SDS011;5977;51.972;7.640;2023-02-28T01:35:07;130.07;;;43.70;;
11835;SDS011;5977;51.972;7.640;2023-02-28T01:37:36;130.03;;;43.80;;
11835;SDS011;5977;51.972;7.640;2023-02-28T01:40:05;130.87;;;44.10;;
11835;SDS011;5977;51.972;7.640;2023-02-28T01:42:33;130.23;;;43.90;;
11835;SDS011;5977;51.972;7.640;2023-02-28T01:45:04;129.73;;;43.70;;
11835;SDS011;5977;51.972;7.640;2023-02-28T01:47:41;130.17;;;43.90;;
11835;SDS011;5977;51.972;7.640;2023-02-28T01:50:13;130.40;;;44.00;;
11835;SDS011;5977;51.972;7.640;2023-02-28T01:52:43;129.37;;;43.60;;
11835;SDS011;5977;51.972;7.640;2023-02-28T01:55:13;129.97;;;44.00;;
11835;SDS011;5977;51.972;7.640;2023-02-28T01:57:45;129.47;;;43.70;;
11835;SDS011;5977;51.972;7.640;2023-02-28T02:00:16;129.17;;;43.63;;
11835;SDS011;5977;51.972;7.640;2023-02-28T02:02:47;129.47;;;43.67;;
11835;SDS011;5977;51.972;7.640;2023-02-28T02:05:20;129.70;;;43.80;;
11835;SDS011;5977;51.972;7.640;2023-02-28T02:07:50;128.60;;;43.33;;
11835;SDS011;5977;51.972;7.640;2023-02-28T02:10:20;129.13;;;43.67;;
11835;SDS011;5977;51.972;7.640;2023-02-28T02:12:55;129.80;;;43.90;;
11835;SDS011;5977;51.972;7.640;2023-02-28T02:15:40;129.13;;;43.70;;
11835;SDS011;5977;51.972;7.640;2023-02-28T02:18:19;129.03;;;43.60;;
11835;SDS011;5977;51.972;7.640;2023-02-28T02:21:12;129.00;;;43.57;;
11835;SDS011;5977;51.972;7.640;2023-02-28T02:27:20;128.53;;;43.50;;
11835;SDS011;5977;51.972;7.640;2023-02-28T02:36:18;129.10;;;43.77;;
11835;SDS011;5977;51.972;7.640;2023-02-28T02:38:50;128.87;;;43.63;;
11835;SDS011;5977;51.972;7.640;2023-02-28T02:41:26;129.40;;;43.70;;
11835;SDS011;5977;51.972;7.640;2023-02-28T02:44:01;129.30;;;43.70;;
11835;SDS011;5977;51.972;7.640;2023-02-28T02:46:34;128.33;;;43.47;;
11835;SDS011;5977;51.972;7.640;2023-02-28T02:49:05;128.77;;;43.53;;
11835;SDS011;5977;51.972;7.640;2023-02-28T02:51:37;128.93;;;43.60;;
11835;SDS011;5977;51.972;7.640;2023-02-28T02:54:08;128.57;;;43.47;;
11835;SDS011;5977;51.972;7.640;2023-02-28T02:56:42;128.37;;;43.50;;
11835;SDS011;5977;51.972;7.640;2023-02-28T02:59:13;129.07;;;43.70;;
11835;SDS011;5977;51.972;7.640;2023-02-28T03:01:48;128.90;;;43.53;;
11835;SDS011;5977;51.972;7.640;2023-02-28T03:04:18;128.53;;;43.47;;
11835;SDS011;5977;51.972;7.640;2023-02-28T03:06:51;128.73;;;43.57;;
11835;SDS011;5977;51.972;7.640;2023-02-28T03:09:20;128.90;;;43.70;;
11835;SDS011;5977;51.972;7.640;2023-02-28T03:11:49;128.73;;;43.60;;
11835;SDS011;5977;51.972;7.640;2023-02-28T03:14:22;127.90;;;43.27;;
11835;SDS011;5977;51.972;7.640;2023-02-28T03:19:51;128.47;;;43.40;;
11835;SDS011;5977;51.972;7.640;2023-02-28T03:22:56;129.13;;;43.77;;
11835;SDS011;5977;51.972;7.640;2023-02-28T03:25:32;128.93;;;43.60;;
11835;SDS011;5977;51.972;7.640;2023-02-28T03:28:08;128.20;;;43.40;;
11835;SDS011;5977;51.972;7.640;2023-02-28T03:30:42;128.70;;;43.60;;
11835;SDS011;5977;51.972;7.640;2023-02-28T03:33:17;128.77;;;43.60;;
11835;SDS011;5977;51.972;7.640;2023-02-28T03:35:50;128.47;;;43.53;;
11835;SDS011;5977;51.972;7.640;2023-02-28T03:38:25;129.00;;;43.73;;
11835;SDS011;5977;51.972;7.640;2023-02-28T03:40:57;127.70;;;43.27;;
11835;SDS011;5977;51.972;7.640;2023-02-28T03:43:32;128.47;;;43.43;;
11835;SDS011;5977;51.972;7.640;2023-02-28T03:46:05;128.50;;;43.50;;
11835;SDS011;5977;51.972;7.640;2023-02-28T03:48:38;128.67;;;43.60;;
11835;SDS011;5977;51.972;7.640;2023-02-28T03:51:10;128.10;;;43.40;;
11835;SDS011;5977;51.972;7.640;2023-02-28T03:53:45;128.90;;;43.63;;
11835;SDS011;5977;51.972;7.640;2023-02-28T03:56:18;129.07;;;43.70;;
11835;SDS011;5977;51.972;7.640;2023-02-28T03:58:49;128.50;;;43.43;;
11835;SDS011;5977;51.972;7.640;2023-02-28T04:01:23;128.80;;;43.70;;
11835;SDS011;5977;51.972;7.640;2023-02-28T04:03:55;128.23;;;43.43;;
11835;SDS011;5977;51.972;7.640;2023-02-28T04:06:23;128.63;;;43.60;;
11835;SDS011;5977;51.972;7.640;2023-02-28T04:08:53;129.20;;;43.73;;
11835;SDS011;5977;51.972;7.640;2023-02-28T04:11:22;129.23;;;43.87;;
11835;SDS011;5977;51.972;7.640;2023-02-28T04:13:55;128.43;;;43.43;;
11835;SDS011;5977;51.972;7.640;2023-02-28T04:16:23;128.17;;;43.30;;
11835;SDS011;5977;51.972;7.640;2023-02-28T04:19:01;127.97;;;43.37;;
11835;SDS011;5977;51.972;7.640;2023-02-28T04:21:31;128.37;;;43.60;;
11835;SDS011;5977;51.972;7.640;2023-02-28T04:24:01;128.33;;;43.47;;
11835;SDS011;5977;51.972;7.640;2023-02-28T04:26:30;127.93;;;43.30;;
11835;SDS011;5977;51.972;7.640;2023-02-28T04:28:58;127.90;;;43.40;;
11835;SDS011;5977;51.972;7.640;2023-02-28T04:31:26;127.53;;;43.10;;
11835;SDS011;5977;51.972;7.640;2023-02-28T04:33:55;128.37;;;43.50;;
11835;SDS011;5977;51.972;7.640;2023-02-28T04:36:23;127.17;;;43.07;;
11835;SDS011;5977;51.972;7.640;2023-02-28T04:38:51;127.90;;;43.40;;
11835;SDS011;5977;51.972;7.640;2023-02-28T04:41:21;128.33;;;43.67;;
11835;SDS011;5977;51.972;7.640;2023-02-28T04:43:50;128.63;;;43.60;;
11835;SDS011;5977;51.972;7.640;2023-02-28T04:46:18;128.37;;;43.47;;
11835;SDS011;5977;51.972;7.640;2023-02-28T04:48:47;129.77;;;44.00;;
11835;SDS011;5977;51.972;7.640;2023-02-28T04:51:16;129.90;;;43.93;;
11835;SDS011;5977;51.972;7.640;2023-02-28T04:53:45;128.73;;;43.53;;
11835;SDS011;5977;51.972;7.640;2023-02-28T04:56:14;129.47;;;43.77;;
11835;SDS011;5977;51.972;7.640;2023-02-28T04:58:44;129.70;;;43.87;;
11835;SDS011;5977;51.972;7.640;2023-02-28T05:01:16;129.90;;;43.90;;
11835;SDS011;5977;51.972;7.640;2023-02-28T05:03:46;129.23;;;43.57;;
11835;SDS011;5977;51.972;7.640;2023-02-28T05:06:15;130.27;;;43.97;;
11835;SDS011;5977;51.972;7.640;2023-02-28T05:08:43;129.83;;;43.80;;
11835;SDS011;5977;51.972;7.640;2023-02-28T05:11:16;129.33;;;43.67;;
11835;SDS011;5977;51.972;7.640;2023-02-28T05:13:46;130.07;;;43.87;;
11835;SDS011;5977;51.972;7.640;2023-02-28T05:16:15;130.03;;;43.90;;
11835;SDS011;5977;51.972;7.640;2023-02-28T05:18:43;130.53;;;44.10;;
11835;SDS011;5977;51.972;7.640;2023-02-28T05:21:22;130.10;;;43.80;;
11835;SDS011;5977;51.972;7.640;2023-02-28T05:23:53;130.07;;;43.90;;
11835;SDS011;5977;51.972;7.640;2023-02-28T05:26:22;129.80;;;43.70;;
11835;SDS011;5977;51.972;7.640;2023-02-28T05:28:51;131.27;;;44.20;;
11835;SDS011;5977;51.972;7.640;2023-02-28T05:31:19;131.07;;;44.20;;
11835;SDS011;5977;51.972;7.640;2023-02-28T05:33:47;130.87;;;44.13;;
11835;SDS011;5977;51.972;7.640;2023-02-28T05:36:15;130.97;;;44.17;;
11835;SDS011;5977;51.972;7.640;2023-02-28T05:38:45;131.10;;;44.20;;
11835;SDS011;5977;51.972;7.640;2023-02-28T05:41:14;131.57;;;44.37;;
11835;SDS011;5977;51.972;7.640;2023-02-28T05:43:42;130.87;;;44.00;;
11835;SDS011;5977;51.972;7.640;2023-02-28T05:46:11;131.07;;;44.20;;
11835;SDS011;5977;51.972;7.640;2023-02-28T05:48:40;130.67;;;44.07;;
11835;SDS011;5977;51.972;7.640;2023-02-28T05:51:08;131.50;;;44.33;;
11835;SDS011;5977;51.972;7.640;2023-02-28T05:53:36;131.87;;;44.33;;
11835;SDS011;5977;51.972;7.640;2023-02-28T05:56:04;132.57;;;44.57;;
11835;SDS011;5977;51.972;7.640;2023-02-28T05:58:32;131.60;;;44.20;;
11835;SDS011;5977;51.972;7.640;2023-02-28T06:01:18;131.57;;;44.20;;
11835;SDS011;5977;51.972;7.640;2023-02-28T06:03:49;131.90;;;44.30;;
11835;SDS011;5977;51.972;7.640;2023-02-28T06:06:17;131.50;;;44.10;;
11835;SDS011;5977;51.972;7.640;2023-02-28T06:08:45;132.00;;;44.30;;
11835;SDS011;5977;51.972;7.640;2023-02-28T06:11:13;132.37;;;44.60;;
11835;SDS011;5977;51.972;7.640;2023-02-28T06:13:41;132.13;;;44.40;;
11835;SDS011;5977;51.972;7.640;2023-02-28T06:16:09;132.53;;;44.50;;
11835;SDS011;5977;51.972;7.640;2023-02-28T06:18:39;131.73;;;44.20;;
11835;SDS011;5977;51.972;7.640;2023-02-28T06:21:07;131.60;;;44.10;;
11835;SDS011;5977;51.972;7.640;2023-02-28T06:23:35;132.33;;;44.43;;
11835;SDS011;5977;51.972;7.640;2023-02-28T06:26:03;132.33;;;44.47;;
11835;SDS011;5977;51.972;7.640;2023-02-28T06:28:31;131.70;;;44.17;;
11835;SDS011;5977;51.972;7.640;2023-02-28T06:30:59;131.47;;;44.10;;
11835;SDS011;5977;51.972;7.640;2023-02-28T06:33:32;131.63;;;44.20;;
11835;SDS011;5977;51.972;7.640;2023-02-28T06:36:01;132.23;;;44.43;;
11835;SDS011;5977;51.972;7.640;2023-02-28T06:38:29;131.57;;;44.20;;
11835;SDS011;5977;51.972;7.640;2023-02-28T06:40:58;131.23;;;44.07;;
11835;SDS011;5977;51.972;7.640;2023-02-28T06:43:27;131.90;;;44.40;;
11835;SDS011;5977;51.972;7.640;2023-02-28T06:45:56;131.57;;;44.10;;
11835;SDS011;5977;51.972;7.640;2023-02-28T06:48:25;132.13;;;44.43;;
11835;SDS011;5977;51.972;7.640;2023-02-28T06:51:02;132.63;;;44.47;;
11835;SDS011;5977;51.972;7.640;2023-02-28T06:53:31;132.17;;;44.37;;
11835;SDS011;5977;51.972;7.640;2023-02-28T06:55:59;132.40;;;44.47;;
11835;SDS011;5977;51.972;7.640;2023-02-28T06:58:31;132.00;;;44.27;;
11835;SDS011;5977;51.972;7.640;2023-02-28T07:00:59;132.33;;;44.43;;
11835;SDS011;5977;51.972;7.640;2023-02-28T07:03:27;131.23;;;44.17;;
11835;SDS011;5977;51.972;7.640;2023-02-28T07:05:58;130.27;;;44.03;;
11835;SDS011;5977;51.972;7.640;2023-02-28T07:08:28;128.33;;;43.47;;
11835;SDS011;5977;51.972;7.640;2023-02-28T07:10:57;126.97;;;43.00;;
11835;SDS011;5977;51.972;7.640;2023-02-28T07:13:25;126.47;;;43.03;;
11835;SDS011;5977;51.972;7.640;2023-02-28T07:15:54;125.33;;;42.70;;
11835;SDS011;5977;51.972;7.640;2023-02-28T07:18:22;125.73;;;43.03;;
11835;SDS011;5977;51.972;7.640;2023-02-28T07:20:50;124.97;;;42.83;;
11835;SDS011;5977;51.972;7.640;2023-02-28T07:23:18;124.80;;;42.80;;
11835;SDS011;5977;51.972;7.640;2023-02-28T07:25:48;123.87;;;42.57;;
11835;SDS011;5977;51.972;7.640;2023-02-28T07:28:16;123.53;;;42.50;;
11835;SDS011;5977;51.972;7.640;2023-02-28T07:30:44;123.23;;;42.43;;
11835;SDS011;5977;51.972;7.640;2023-02-28T07:33:12;123.63;;;42.63;;
11835;SDS011;5977;51.972;7.640;2023-02-28T07:35:40;123.40;;;42.60;;
11835;SDS011;5977;51.972;7.640;2023-02-28T07:38:08;123.10;;;42.43;;
11835;SDS011;5977;51.972;7.640;2023-02-28T07:40:36;123.80;;;42.80;;
11835;SDS011;5977;51.972;7.640;2023-02-28T07:43:05;123.13;;;42.50;;
11835;SDS011;5977;51.972;7.640;2023-02-28T07:45:33;122.07;;;42.10;;
11835;SDS011;5977;51.972;7.640;2023-02-28T07:48:01;122.67;;;42.43;;
11835;SDS011;5977;51.972;7.640;2023-02-28T07:50:30;123.07;;;42.47;;
11835;SDS011;5977;51.972;7.640;2023-02-28T07:52:58;123.93;;;42.80;;
11835;SDS011;5977;51.972;7.640;2023-02-28T07:55:26;124.67;;;42.97;;
11835;SDS011;5977;51.972;7.640;2023-02-28T07:57:54;125.40;;;43.07;;
11835;SDS011;5977;51.972;7.640;2023-02-28T08:00:25;126.63;;;43.40;;
11835;SDS011;5977;51.972;7.640;2023-02-28T08:02:53;126.33;;;43.20;;
11835;SDS011;5977;51.972;7.640;2023-02-28T08:05:20;128.20;;;43.60;;
11835;SDS011;5977;51.972;7.640;2023-02-28T08:07:48;129.27;;;43.90;;
11835;SDS011;5977;51.972;7.640;2023-02-28T08:10:16;129.63;;;43.87;;
11835;SDS011;5977;51.972;7.640;2023-02-28T08:12:44;130.57;;;44.13;;
11835;SDS011;5977;51.972;7.640;2023-02-28T08:15:12;130.97;;;44.03;;
11835;SDS011;5977;51.972;7.640;2023-02-28T08:17:41;131.43;;;44.27;;
11835;SDS011;5977;51.972;7.640;2023-02-28T08:20:10;133.20;;;44.67;;
11835;SDS011;5977;51.972;7.640;2023-02-28T08:22:38;133.53;;;44.67;;
11835;SDS011;5977;51.972;7.640;2023-02-28T08:25:07;134.30;;;44.80;;
11835;SDS011;5977;51.972;7.640;2023-02-28T08:27:36;135.03;;;45.00;;
11835;SDS011;5977;51.972;7.640;2023-02-28T08:30:04;135.87;;;45.23;;
11835;SDS011;5977;51.972;7.640;2023-02-28T08:32:33;136.60;;;45.50;;
11835;SDS011;5977;51.972;7.640;2023-02-28T08:35:02;136.60;;;45.30;;
11835;SDS011;5977;51.972;7.640;2023-02-28T08:37:31;136.93;;;45.47;;
11835;SDS011;5977;51.972;7.640;2023-02-28T08:39:58;137.60;;;45.50;;
11835;SDS011;5977;51.972;7.640;2023-02-28T08:42:26;136.80;;;45.13;;
11835;SDS011;5977;51.972;7.640;2023-02-28T08:44:54;137.43;;;45.37;;
11835;SDS011;5977;51.972;7.640;2023-02-28T08:47:22;137.53;;;45.60;;
11835;SDS011;5977;51.972;7.640;2023-02-28T08:49:50;137.80;;;45.50;;
11835;SDS011;5977;51.972;7.640;2023-02-28T08:52:20;137.47;;;45.57;;
11835;SDS011;5977;51.972;7.640;2023-02-28T08:54:48;137.83;;;45.60;;
11835;SDS011;5977;51.972;7.640;2023-02-28T08:57:16;137.37;;;45.40;;
11835;SDS011;5977;51.972;7.640;2023-02-28T08:59:44;138.33;;;45.70;;
11835;SDS011;5977;51.972;7.640;2023-02-28T09:02:12;138.53;;;45.70;;
11835;SDS011;5977;51.972;7.640;2023-02-28T09:04:40;138.63;;;45.73;;
11835;SDS011;5977;51.972;7.640;2023-02-28T09:07:11;138.10;;;45.57;;
11835;SDS011;5977;51.972;7.640;2023-02-28T09:09:41;139.03;;;45.90;;
11835;SDS011;5977;51.972;7.640;2023-02-28T09:12:20;138.97;;;45.90;;
11835;SDS011;5977;51.972;7.640;2023-02-28T09:14:48;138.33;;;45.50;;
11835;SDS011;5977;51.972;7.640;2023-02-28T09:17:16;138.57;;;45.67;;
11835;SDS011;5977;51.972;7.640;2023-02-28T09:19:44;138.47;;;45.77;;
11835;SDS011;5977;51.972;7.640;2023-02-28T09:22:12;138.10;;;45.47;;
11835;SDS011;5977;51.972;7.640;2023-02-28T09:24:41;139.00;;;45.87;;
11835;SDS011;5977;51.972;7.640;2023-02-28T09:27:10;138.57;;;45.70;;
11835;SDS011;5977;51.972;7.640;2023-02-28T09:29:38;138.23;;;45.57;;
11835;SDS011;5977;51.972;7.640;2023-02-28T09:32:06;138.97;;;46.00;;
11835;SDS011;5977;51.972;7.640;2023-02-28T09:34:34;138.63;;;45.80;;
11835;SDS011;5977;51.972;7.640;2023-02-28T09:37:03;138.13;;;45.57;;
11835;SDS011;5977;51.972;7.640;2023-02-28T09:39:31;137.37;;;45.30;;
11835;SDS011;5977;51.972;7.640;2023-02-28T09:42:00;137.57;;;45.40;;
11835;SDS011;5977;51.972;7.640;2023-02-28T09:44:31;137.60;;;45.40;;
11835;SDS011;5977;51.972;7.640;2023-02-28T09:47:05;137.77;;;45.57;;
11835;SDS011;5977;51.972;7.640;2023-02-28T09:49:40;138.57;;;45.73;;
11835;SDS011;5977;51.972;7.640;2023-02-28T09:52:13;138.30;;;45.70;;
11835;SDS011;5977;51.972;7.640;2023-02-28T09:54:45;137.97;;;45.43;;
11835;SDS011;5977;51.972;7.640;2023-02-28T09:57:16;138.33;;;45.60;;
11835;SDS011;5977;51.972;7.640;2023-02-28T09:59:51;138.53;;;45.63;;
11835;SDS011;5977;51.972;7.640;2023-02-28T10:02:42;137.47;;;45.30;;
11835;SDS011;5977;51.972;7.640;2023-02-28T10:05:19;137.93;;;45.50;;
11835;SDS011;5977;51.972;7.640;2023-02-28T10:07:53;137.40;;;45.27;;
11835;SDS011;5977;51.972;7.640;2023-02-28T10:10:29;137.20;;;45.30;;
11835;SDS011;5977;51.972;7.640;2023-02-28T10:13:04;138.20;;;45.60;;
11835;SDS011;5977;51.972;7.640;2023-02-28T10:15:39;138.07;;;45.60;;
11835;SDS011;5977;51.972;7.640;2023-02-28T10:18:09;137.23;;;45.30;;
11835;SDS011;5977;51.972;7.640;2023-02-28T10:20:41;138.07;;;45.60;;
11835;SDS011;5977;51.972;7.640;2023-02-28T10:23:11;136.90;;;45.20;;
11835;SDS011;5977;51.972;7.640;2023-02-28T10:25:44;136.93;;;45.30;;
11835;SDS011;5977;51.972;7.640;2023-02-28T10:28:18;137.17;;;45.50;;
11835;SDS011;5977;51.972;7.640;2023-02-28T10:30:46;135.93;;;44.90;;
11835;SDS011;5977;51.972;7.640;2023-02-28T10:33:17;136.97;;;45.30;;
11835;SDS011;5977;51.972;7.640;2023-02-28T10:35:48;136.87;;;45.30;;
11835;SDS011;5977;51.972;7.640;2023-02-28T10:38:18;137.40;;;45.33;;
11835;SDS011;5977;51.972;7.640;2023-02-28T10:40:48;137.20;;;45.50;;
11835;SDS011;5977;51.972;7.640;2023-02-28T10:43:23;137.73;;;45.40;;
11835;SDS011;5977;51.972;7.640;2023-02-28T10:45:52;137.57;;;45.40;;
11835;SDS011;5977;51.972;7.640;2023-02-28T10:48:27;138.83;;;45.70;;
11835;SDS011;5977;51.972;7.640;2023-02-28T10:50:59;138.17;;;45.70;;
11835;SDS011;5977;51.972;7.640;2023-02-28T10:53:30;137.57;;;45.50;;
11835;SDS011;5977;51.972;7.640;2023-02-28T10:56:23;137.20;;;45.40;;
11835;SDS011;5977;51.972;7.640;2023-02-28T10:58:54;137.50;;;45.47;;
11835;SDS011;5977;51.972;7.640;2023-02-28T11:01:24;136.73;;;45.30;;
11835;SDS011;5977;51.972;7.640;2023-02-28T11:04:02;136.87;;;45.23;;
11835;SDS011;5977;51.972;7.640;2023-02-28T11:06:31;137.30;;;45.70;;
11835;SDS011;5977;51.972;7.640;2023-02-28T11:09:02;136.33;;;45.17;;
11835;SDS011;5977;51.972;7.640;2023-02-28T11:11:40;136.50;;;45.23;;
11835;SDS011;5977;51.972;7.640;2023-02-28T11:14:17;136.40;;;45.37;;
11835;SDS011;5977;51.972;7.640;2023-02-28T11:16:48;137.03;;;45.53;;
11835;SDS011;5977;51.972;7.640;2023-02-28T11:19:18;137.27;;;45.50;;
11835;SDS011;5977;51.972;7.640;2023-02-28T11:21:51;136.63;;;45.30;;
11835;SDS011;5977;51.972;7.640;2023-02-28T11:24:23;136.73;;;45.30;;
11835;SDS011;5977;51.972;7.640;2023-02-28T11:26:54;136.77;;;45.30;;
11835;SDS011;5977;51.972;7.640;2023-02-28T11:29:24;136.80;;;45.23;;
11835;SDS011;5977;51.972;7.640;2023-02-28T11:32:02;137.37;;;45.50;;
11835;SDS011;5977;51.972;7.640;2023-02-28T11:34:33;137.90;;;45.73;;
11835;SDS011;5977;51.972;7.640;2023-02-28T11:37:04;137.60;;;45.63;;
11835;SDS011;5977;51.972;7.640;2023-02-28T11:39:36;137.07;;;45.27;;
11835;SDS011;5977;51.972;7.640;2023-02-28T11:42:07;135.83;;;44.90;;
11835;SDS011;5977;51.972;7.640;2023-02-28T11:44:51;136.07;;;45.07;;
11835;SDS011;5977;51.972;7.640;2023-02-28T11:47:32;136.33;;;45.23;;
11835;SDS011;5977;51.972;7.640;2023-02-28T11:50:21;135.70;;;44.93;;
11835;SDS011;5977;51.972;7.640;2023-02-28T11:52:59;135.50;;;44.93;;
11835;SDS011;5977;51.972;7.640;2023-02-28T11:55:30;136.03;;;45.20;;
11835;SDS011;5977;51.972;7.640;2023-02-28T11:58:11;135.20;;;44.80;;
11835;SDS011;5977;51.972;7.640;2023-02-28T12:03:58;135.80;;;45.17;;
11835;SDS011;5977;51.972;7.640;2023-02-28T12:06:42;135.07;;;44.87;;
11835;SDS011;5977;51.972;7.640;2023-02-28T12:09:29;134.43;;;44.63;;
11835;SDS011;5977;51.972;7.640;2023-02-28T12:12:11;134.53;;;44.87;;
11835;SDS011;5977;51.972;7.640;2023-02-28T12:14:56;133.90;;;44.53;;
11835;SDS011;5977;51.972;7.640;2023-02-28T12:17:45;134.30;;;44.77;;
11835;SDS011;5977;51.972;7.640;2023-02-28T12:20:24;134.20;;;44.73;;
11835;SDS011;5977;51.972;7.640;2023-02-28T12:23:01;133.60;;;44.50;;
11835;SDS011;5977;51.972;7.640;2023-02-28T12:25:48;134.07;;;44.57;;
11835;SDS011;5977;51.972;7.640;2023-02-28T12:28:23;134.30;;;44.60;;
11835;SDS011;5977;51.972;7.640;2023-02-28T12:30:56;134.20;;;44.53;;
11835;SDS011;5977;51.972;7.640;2023-02-28T12:33:31;134.67;;;44.80;;
11835;SDS011;5977;51.972;7.640;2023-02-28T12:36:03;134.47;;;44.70;;
11835;SDS011;5977;51.972;7.640;2023-02-28T12:38:37;134.47;;;44.80;;
11835;SDS011;5977;51.972;7.640;2023-02-28T12:41:10;134.33;;;44.70;;
11835;SDS011;5977;51.972;7.640;2023-02-28T12:43:42;134.27;;;44.63;;
11835;SDS011;5977;51.972;7.640;2023-02-28T12:46:14;133.67;;;44.47;;
11835;SDS011;5977;51.972;7.640;2023-02-28T12:48:49;133.83;;;44.60;;
11835;SDS011;5977;51.972;7.640;2023-02-28T12:51:21;133.57;;;44.47;;
11835;SDS011;5977;51.972;7.640;2023-02-28T12:53:54;133.37;;;44.50;;
11835;SDS011;5977;51.972;7.640;2023-02-28T12:56:30;133.47;;;44.47;;
11835;SDS011;5977;51.972;7.640;2023-02-28T12:59:10;133.60;;;44.53;;
11835;SDS011;5977;51.972;7.640;2023-02-28T13:10:48;133.23;;;44.40;;
11835;SDS011;5977;51.972;7.640;2023-02-28T13:13:21;133.53;;;44.50;;
11835;SDS011;5977;51.972;7.640;2023-02-28T13:15:57;133.23;;;44.53;;
11835;SDS011;5977;51.972;7.640;2023-02-28T13:18:28;133.37;;;44.47;;
11835;SDS011;5977;51.972;7.640;2023-02-28T13:20:59;133.33;;;44.40;;
11835;SDS011;5977;51.972;7.640;2023-02-28T13:23:36;132.27;;;44.10;;
11835;SDS011;5977;51.972;7.640;2023-02-28T13:26:06;132.13;;;44.03;;
11835;SDS011;5977;51.972;7.640;2023-02-28T13:35:12;132.10;;;44.07;;
11835;SDS011;5977;51.972;7.640;2023-02-28T13:38:31;132.57;;;44.20;;
11835;SDS011;5977;51.972;7.640;2023-02-28T13:44:08;132.47;;;44.20;;
11835;SDS011;5977;51.972;7.640;2023-02-28T13:49:35;132.50;;;44.20;;
11835;SDS011;5977;51.972;7.640;2023-02-28T13:52:06;133.07;;;44.40;;
11835;SDS011;5977;51.972;7.640;2023-02-28T13:54:48;132.83;;;44.37;;
11835;SDS011;5977;51.972;7.640;2023-02-28T13:57:39;133.10;;;44.50;;
11835;SDS011;5977;51.972;7.640;2023-02-28T14:00:19;133.13;;;44.50;;
11835;SDS011;5977;51.972;7.640;2023-02-28T14:03:06;133.20;;;44.50;;
11835;SDS011;5977;51.972;7.640;2023-02-28T14:05:39;132.60;;;44.30;;
11835;SDS011;5977;51.972;7.640;2023-02-28T14:08:11;132.53;;;44.30;;
11835;SDS011;5977;51.972;7.640;2023-02-28T14:10:45;132.57;;;44.30;;
11835;SDS011;5977;51.972;7.640;2023-02-28T14:16:11;130.63;;;43.83;;
11835;SDS011;5977;51.972;7.640;2023-02-28T14:18:42;130.80;;;43.90;;
11835;SDS011;5977;51.972;7.640;2023-02-28T14:21:20;130.20;;;43.83;;
11835;SDS011;5977;51.972;7.640;2023-02-28T14:23:57;129.73;;;43.60;;
11835;SDS011;5977;51.972;7.640;2023-02-28T14:26:58;130.70;;;43.93;;
11835;SDS011;5977;51.972;7.640;2023-02-28T14:32:33;130.50;;;43.80;;
11835;SDS011;5977;51.972;7.640;2023-02-28T14:35:09;131.00;;;43.97;;
11835;SDS011;5977;51.972;7.640;2023-02-28T14:37:46;131.07;;;43.97;;
11835;SDS011;5977;51.972;7.640;2023-02-28T14:40:17;131.47;;;44.00;;
11835;SDS011;5977;51.972;7.640;2023-02-28T14:42:55;131.63;;;44.10;;
11835;SDS011;5977;51.972;7.640;2023-02-28T14:45:26;132.03;;;44.20;;
11835;SDS011;5977;51.972;7.640;2023-02-28T14:47:57;132.60;;;44.33;;
11835;SDS011;5977;51.972;7.640;2023-02-28T14:50:26;132.37;;;44.37;;
11835;SDS011;5977;51.972;7.640;2023-02-28T14:52:57;133.03;;;44.57;;
11835;SDS011;5977;51.972;7.640;2023-02-28T14:55:26;132.90;;;44.43;;
11835;SDS011;5977;51.972;7.640;2023-02-28T14:57:59;132.70;;;44.40;;
11835;SDS011;5977;51.972;7.640;2023-02-28T15:00:31;132.63;;;44.40;;
11835;SDS011;5977;51.972;7.640;2023-02-28T15:03:00;132.13;;;44.23;;
11835;SDS011;5977;51.972;7.640;2023-02-28T15:05:51;132.60;;;44.33;;
11835;SDS011;5977;51.972;7.640;2023-02-28T15:08:19;132.43;;;44.30;;
11835;SDS011;5977;51.972;7.640;2023-02-28T15:10:50;132.13;;;44.13;;
11835;SDS011;5977;51.972;7.640;2023-02-28T15:13:22;132.50;;;44.30;;
11835;SDS011;5977;51.972;7.640;2023-02-28T15:15:54;132.30;;;44.13;;
11835;SDS011;5977;51.972;7.640;2023-02-28T15:18:30;132.83;;;44.50;;
11835;SDS011;5977;51.972;7.640;2023-02-28T15:21:07;133.30;;;44.60;;
11835;SDS011;5977;51.972;7.640;2023-02-28T15:23:38;132.13;;;44.03;;
11835;SDS011;5977;51.972;7.640;2023-02-28T15:26:09;133.17;;;44.47;;
11835;SDS011;5977;51.972;7.640;2023-02-28T15:28:41;132.57;;;44.27;;
11835;SDS011;5977;51.972;7.640;2023-02-28T15:31:18;133.00;;;44.43;;